Time;durP1;ratioP1;P1;durP2;ratioP2;P2;SDS_P1;SDS_P2;PMS_P1;PMS_P2;Temp;Humidity;BMP_temperature;BMP_pressure;BME280_temperature;BME280_humidity;BME280_pressure;Samples;Min_cycle;Max_cycle;Signal;HPM_P1;HPM_P2
2023/11/02 00:01:40;;;;;;;8.83;2.17;;;12.40;99.90;;;;;;5016603;28;20207;-80
2023/11/02 00:04:06;;;;;;;6.13;1.87;;;12.40;99.50;;;;;;5017700;28;20167;-82
2023/11/02 00:06:33;;;;;;;8.23;2.00;;;12.50;98.20;;;;;;5018156;28;20264;-80
2023/11/02 00:09:05;;;;;;;7.47;2.57;;;12.60;97.50;;;;;;5017910;28;20178;-80
2023/11/02 00:11:55;;;;;;;9.13;2.23;;;12.60;96.40;;;;;;5015049;28;20222;-80
2023/11/02 00:14:22;;;;;;;10.17;2.43;;;12.60;96.20;;;;;;5016189;28;20224;-82
2023/11/02 00:16:49;;;;;;;7.30;2.43;;;12.50;96.00;;;;;;5018146;28;20653;-80
2023/11/02 00:19:35;;;;;;;7.40;1.70;;;12.60;95.00;;;;;;5016186;28;20177;-81
2023/11/02 00:22:08;;;;;;;10.53;1.73;;;12.50;95.40;;;;;;5017113;28;20274;-80
2023/11/02 00:24:40;;;;;;;5.60;2.10;;;12.50;95.50;;;;;;5014974;28;20172;-80
2023/11/02 00:27:07;;;;;;;6.60;2.03;;;12.50;95.00;;;;;;5017360;28;20170;-80
2023/11/02 00:29:33;;;;;;;5.60;1.67;;;12.50;94.90;;;;;;5015971;28;20167;-80
2023/11/02 00:31:59;;;;;;;7.43;2.03;;;12.50;95.50;;;;;;5015822;28;20966;-79
2023/11/02 00:34:28;;;;;;;8.80;2.10;;;12.40;95.60;;;;;;5016945;28;20174;-80
2023/11/02 00:36:55;;;;;;;8.33;2.17;;;12.40;95.50;;;;;;5015925;28;20241;-81
2023/11/02 00:39:21;;;;;;;6.70;1.63;;;12.40;96.10;;;;;;5017684;28;20166;-82
2023/11/02 00:41:47;;;;;;;4.53;1.60;;;12.50;96.00;;;;;;5017144;28;20236;-81
2023/11/02 00:44:13;;;;;;;9.53;2.17;;;12.40;96.00;;;;;;5015854;28;20612;-80
2023/11/02 00:46:40;;;;;;;7.27;2.27;;;12.40;95.60;;;;;;5017002;28;20198;-80
2023/11/02 00:49:13;;;;;;;8.93;2.17;;;12.40;95.70;;;;;;5015862;28;20630;-80
2023/11/02 00:51:40;;;;;;;11.30;2.73;;;12.40;95.50;;;;;;5017215;28;20301;-80
2023/11/02 00:54:07;;;;;;;6.70;1.90;;;12.50;96.70;;;;;;5017067;28;20267;-80
2023/11/02 00:56:37;;;;;;;12.73;2.20;;;12.50;96.70;;;;;;5015709;28;20178;-80
2023/11/02 00:59:04;;;;;;;10.17;2.40;;;12.40;98.70;;;;;;5016940;28;20173;-81
2023/11/02 01:01:31;;;;;;;7.43;1.90;;;12.40;99.30;;;;;;5020188;28;20607;-79
2023/11/02 01:04:00;;;;;;;7.47;1.80;;;12.40;99.70;;;;;;5016298;28;20177;-79
2023/11/02 01:06:30;;;;;;;7.60;1.60;;;12.50;99.70;;;;;;5015573;28;20170;-80
2023/11/02 01:09:00;;;;;;;7.13;1.80;;;12.50;99.70;;;;;;5017008;28;20177;-80
2023/11/02 01:11:31;;;;;;;8.63;2.20;;;12.40;99.90;;;;;;5013684;28;20293;-80
2023/11/02 01:13:57;;;;;;;7.50;1.90;;;12.40;99.90;;;;;;5015048;28;20611;-82
2023/11/02 01:16:23;;;;;;;8.40;2.10;;;12.40;99.90;;;;;;5015494;28;20173;-80
2023/11/02 01:18:49;;;;;;;6.27;2.07;;;12.40;99.90;;;;;;5015566;28;20185;-81
2023/11/02 01:21:15;;;;;;;9.13;2.30;;;12.40;99.90;;;;;;5015236;28;20557;-78
2023/11/02 01:23:42;;;;;;;6.63;1.67;;;12.60;99.90;;;;;;5015115;28;20712;-79
2023/11/02 01:26:40;;;;;;;9.07;1.83;;;12.50;99.90;;;;;;5013338;28;20178;-78
2023/11/02 01:29:05;;;;;;;7.17;2.13;;;12.60;99.40;;;;;;5014474;28;20181;-80
2023/11/02 01:31:35;;;;;;;7.30;2.23;;;12.60;98.50;;;;;;5015812;28;20575;-79
2023/11/02 01:34:02;;;;;;;8.60;1.97;;;12.50;99.00;;;;;;5014297;28;20173;-80
2023/11/02 01:36:36;;;;;;;4.90;1.97;;;12.40;99.20;;;;;;5016859;28;20707;-78
2023/11/02 01:39:27;;;;;;;10.40;2.27;;;12.50;99.20;;;;;;5017242;28;20166;-78
2023/11/02 01:42:07;;;;;;;7.67;2.20;;;12.40;98.50;;;;;;5015676;28;20182;-82
2023/11/02 01:44:46;;;;;;;8.57;2.80;;;12.50;98.10;;;;;;5013771;28;20197;-82
2023/11/02 01:47:31;;;;;;;9.37;1.70;;;12.40;95.90;;;;;;5016108;28;20200;-80
2023/11/02 01:50:31;;;;;;;9.77;2.13;;;12.50;95.30;;;;;;5015192;28;20178;-81
2023/11/02 01:53:04;;;;;;;6.37;1.97;;;12.50;92.90;;;;;;5013364;28;20218;-79
2023/11/02 01:55:40;;;;;;;7.27;1.93;;;12.50;92.50;;;;;;5014023;28;20175;-80
2023/11/02 01:58:11;;;;;;;7.63;1.87;;;12.50;91.90;;;;;;5014951;28;20595;-78
2023/11/02 02:00:46;;;;;;;6.83;1.70;;;12.50;87.70;;;;;;5014088;28;20626;-80
2023/11/02 02:03:18;;;;;;;8.03;1.57;;;12.50;87.00;;;;;;5014173;28;20599;-79
2023/11/02 02:05:55;;;;;;;5.70;1.60;;;12.60;83.00;;;;;;5014074;28;20178;-80
2023/11/02 02:08:36;;;;;;;5.07;1.70;;;12.60;79.70;;;;;;5014866;28;20658;-79
2023/11/02 02:11:31;;;;;;;6.03;1.30;;;12.60;75.10;;;;;;5014760;28;20178;-79
2023/11/02 02:14:11;;;;;;;3.40;1.40;;;12.60;70.40;;;;;;5013423;28;20251;-80
2023/11/02 02:17:06;;;;;;;6.30;1.30;;;12.50;67.00;;;;;;5014190;28;20196;-82
2023/11/02 02:19:57;;;;;;;5.80;1.43;;;12.50;65.00;;;;;;5015012;28;20213;-79
2023/11/02 02:22:32;;;;;;;6.13;1.40;;;12.60;61.80;;;;;;5013597;28;20173;-77
2023/11/02 02:25:13;;;;;;;5.33;1.83;;;12.70;58.70;;;;;;5014736;28;20192;-79
2023/11/02 02:27:53;;;;;;;6.50;1.50;;;12.80;57.30;;;;;;5014805;28;20170;-79
2023/11/02 02:30:28;;;;;;;4.00;1.13;;;12.80;54.70;;;;;;5013696;28;20697;-79
2023/11/02 02:33:15;;;;;;;5.17;1.40;;;12.80;51.50;;;;;;5014228;28;20202;-79
2023/11/02 02:35:52;;;;;;;2.80;1.30;;;12.80;50.10;;;;;;5018045;28;20173;-79
2023/11/02 02:38:23;;;;;;;8.93;1.37;;;12.60;51.20;;;;;;5019389;28;20168;-79
2023/11/02 02:41:04;;;;;;;2.47;1.07;;;12.60;53.70;;;;;;5017927;28;20170;-79
2023/11/02 02:43:34;;;;;;;6.07;1.33;;;12.60;52.60;;;;;;5017303;28;20170;-80
2023/11/02 02:46:03;;;;;;;5.13;1.33;;;12.40;54.10;;;;;;5017903;28;20186;-81
2023/11/02 02:48:30;;;;;;;2.83;0.93;;;12.50;55.00;;;;;;5019933;28;20536;-82
2023/11/02 02:50:58;;;;;;;3.63;0.90;;;12.40;56.40;;;;;;5018537;28;20193;-83
2023/11/02 02:53:29;;;;;;;4.80;1.23;;;12.60;55.50;;;;;;5018545;28;20260;-80
2023/11/02 02:56:15;;;;;;;3.97;1.20;;;12.50;52.50;;;;;;5019492;28;20180;-78
2023/11/02 02:59:03;;;;;;;4.83;1.07;;;12.50;52.90;;;;;;5035535;28;20186;-79
2023/11/02 03:01:56;;;;;;;5.13;1.40;;;12.50;54.40;;;;;;5020064;28;20178;-81
2023/11/02 03:04:24;;;;;;;2.60;1.10;;;12.50;54.00;;;;;;5018059;28;20661;-80
2023/11/02 03:06:54;;;;;;;4.30;1.10;;;12.50;52.30;;;;;;5020917;28;20171;-79
2023/11/02 03:09:21;;;;;;;2.93;1.10;;;12.40;52.60;;;;;;5020490;28;20168;-79
2023/11/02 03:11:50;;;;;;;4.13;1.30;;;12.70;52.80;;;;;;5019527;28;20206;-79
2023/11/02 03:14:17;;;;;;;2.87;0.90;;;12.70;53.00;;;;;;5018452;28;20186;-80
2023/11/02 03:16:46;;;;;;;6.17;1.30;;;12.80;50.80;;;;;;5018950;28;20175;-81
2023/11/02 03:19:47;;;;;;;3.10;0.90;;;12.80;51.40;;;;;;5016938;28;20240;-80
2023/11/02 03:22:18;;;;;;;3.57;1.10;;;12.70;52.70;;;;;;5030672;28;20189;-80
2023/11/02 03:25:09;;;;;;;4.10;1.03;;;12.60;55.50;;;;;;5018266;28;20231;-79
2023/11/02 03:28:08;;;;;;;7.47;1.50;;;12.60;56.60;;;;;;5016844;28;20200;-81
2023/11/02 03:30:39;;;;;;;2.83;1.03;;;12.60;56.90;;;;;;5016147;28;20173;-80
2023/11/02 03:33:11;;;;;;;4.67;1.10;;;12.70;57.90;;;;;;5017597;28;20237;-79
2023/11/02 03:35:57;;;;;;;3.30;0.93;;;12.70;58.70;;;;;;5016212;28;20166;-81
2023/11/02 03:38:36;;;;;;;4.23;0.97;;;12.70;59.30;;;;;;5018986;28;20165;-80
2023/11/02 03:41:31;;;;;;;3.83;1.00;;;12.60;60.40;;;;;;5016347;28;20182;-80
2023/11/02 03:44:12;;;;;;;4.57;1.10;;;12.60;62.10;;;;;;5017580;28;20669;-80
2023/11/02 03:46:50;;;;;;;5.67;1.03;;;12.60;63.70;;;;;;5017521;28;20256;-79
2023/11/02 03:49:30;;;;;;;3.27;1.13;;;12.90;64.90;;;;;;5020383;28;20193;-80
2023/11/02 03:52:05;;;;;;;3.07;1.03;;;12.70;65.00;;;;;;5020299;28;20211;-81
2023/11/02 03:54:36;;;;;;;6.07;0.97;;;12.70;66.00;;;;;;5023927;28;20161;-83
2023/11/02 03:57:29;;;;;;;1.97;1.00;;;12.80;68.10;;;;;;5020689;28;20228;-79
2023/11/02 04:00:11;;;;;;;2.27;1.00;;;12.80;68.40;;;;;;5019360;28;20187;-78
2023/11/02 04:02:47;;;;;;;4.37;0.93;;;12.80;68.40;;;;;;5018996;28;20169;-78
2023/11/02 04:05:19;;;;;;;3.13;1.10;;;12.80;71.50;;;;;;5016071;28;20174;-80
2023/11/02 04:08:19;;;;;;;3.77;1.07;;;12.80;70.60;;;;;;5016978;28;20253;-81
2023/11/02 04:11:10;;;;;;;2.77;1.13;;;12.90;71.70;;;;;;5017891;28;20229;-79
2023/11/02 04:13:47;;;;;;;3.67;1.00;;;12.90;70.80;;;;;;5015588;28;20191;-79
2023/11/02 04:16:13;;;;;;;3.20;1.23;;;12.80;74.20;;;;;;5016007;28;20650;-81
2023/11/02 04:18:40;;;;;;;2.87;0.90;;;12.90;73.50;;;;;;5017566;28;20171;-80
2023/11/02 04:21:06;;;;;;;1.83;0.90;;;12.90;74.80;;;;;;5032769;28;20167;-80
2023/11/02 04:23:32;;;;;;;3.40;0.93;;;13.00;76.20;;;;;;5028700;28;20568;-81
2023/11/02 04:25:59;;;;;;;4.90;1.00;;;12.70;76.20;;;;;;5018718;28;20177;-80
2023/11/02 04:28:25;;;;;;;4.07;1.20;;;12.90;78.00;;;;;;5022668;28;20204;-78
2023/11/02 04:30:51;;;;;;;2.83;1.00;;;13.00;79.60;;;;;;5030768;28;20166;-79
2023/11/02 04:33:17;;;;;;;3.13;1.00;;;13.00;81.40;;;;;;5031244;28;20725;-78
2023/11/02 04:35:43;;;;;;;3.97;1.13;;;13.00;83.30;;;;;;5035897;28;20166;-80
2023/11/02 04:38:09;;;;;;;3.40;1.13;;;13.00;83.40;;;;;;5019573;28;20236;-79
2023/11/02 04:40:36;;;;;;;3.20;1.10;;;13.00;85.70;;;;;;5016435;28;20205;-78
2023/11/02 04:43:03;;;;;;;1.77;0.97;;;13.10;83.60;;;;;;5017150;28;20173;-79
2023/11/02 04:45:31;;;;;;;4.50;1.57;;;13.20;83.00;;;;;;5017577;28;20644;-80
2023/11/02 04:47:57;;;;;;;2.97;1.07;;;13.20;81.20;;;;;;5016476;28;20201;-80
2023/11/02 04:50:29;;;;;;;2.63;0.83;;;13.20;79.50;;;;;;5017170;28;20661;-78
2023/11/02 04:52:55;;;;;;;3.77;1.00;;;13.20;75.60;;;;;;5016884;28;20229;-79
2023/11/02 04:55:20;;;;;;;3.50;0.97;;;13.30;73.60;;;;;;5015702;28;20178;-78
2023/11/02 04:57:46;;;;;;;2.07;0.60;;;13.30;74.30;;;;;;5016276;28;20174;-79
2023/11/02 05:00:13;;;;;;;2.57;0.83;;;13.20;78.60;;;;;;5016802;28;20170;-80
2023/11/02 05:02:39;;;;;;;3.07;0.93;;;13.20;81.50;;;;;;5018407;28;20646;-81
2023/11/02 05:05:05;;;;;;;2.60;1.20;;;13.20;85.30;;;;;;5015952;28;20256;-82
2023/11/02 05:07:31;;;;;;;2.13;0.87;;;13.10;86.20;;;;;;5015203;28;20229;-79
2023/11/02 05:09:57;;;;;;;1.57;0.63;;;13.20;88.50;;;;;;5015963;28;20169;-80
2023/11/02 05:12:23;;;;;;;2.77;0.97;;;13.10;90.00;;;;;;5026478;28;20265;-78
2023/11/02 05:14:51;;;;;;;3.23;0.80;;;13.10;91.00;;;;;;5035445;28;20169;-80
2023/11/02 05:17:17;;;;;;;2.93;0.87;;;13.00;91.00;;;;;;5034577;28;20660;-78
2023/11/02 05:19:43;;;;;;;5.17;1.17;;;13.00;90.90;;;;;;5035288;28;20257;-80
2023/11/02 05:22:08;;;;;;;3.07;0.97;;;13.00;89.10;;;;;;5035481;28;20211;-80
2023/11/02 05:24:34;;;;;;;2.43;1.07;;;13.20;86.20;;;;;;5034026;28;20165;-79
2023/11/02 05:27:01;;;;;;;3.40;1.10;;;13.20;82.90;;;;;;5034824;28;20179;-79
2023/11/02 05:29:26;;;;;;;2.23;0.80;;;13.20;82.00;;;;;;5034960;28;20173;-80
2023/11/02 05:31:52;;;;;;;3.97;1.47;;;13.20;78.30;;;;;;5035729;28;20284;-79
2023/11/02 05:34:18;;;;;;;2.67;0.83;;;13.30;78.10;;;;;;5036125;28;20228;-80
2023/11/02 05:36:44;;;;;;;3.23;1.00;;;13.30;77.40;;;;;;5035020;28;20167;-80
2023/11/02 05:39:13;;;;;;;2.93;1.00;;;13.30;76.10;;;;;;5036281;28;20193;-79
2023/11/02 05:41:39;;;;;;;2.70;1.00;;;13.30;74.80;;;;;;5034556;28;20185;-80
2023/11/02 05:44:05;;;;;;;4.23;1.03;;;13.40;73.00;;;;;;5035176;28;20574;-79
2023/11/02 05:46:32;;;;;;;4.20;1.37;;;13.40;72.70;;;;;;5034197;28;20607;-81
2023/11/02 05:48:57;;;;;;;3.43;0.90;;;13.50;72.80;;;;;;5033697;28;20289;-81
2023/11/02 05:51:23;;;;;;;6.47;1.10;;;13.50;72.20;;;;;;5034034;28;20220;-79
2023/11/02 05:53:50;;;;;;;4.27;1.13;;;13.50;71.30;;;;;;5034303;28;20169;-83
2023/11/02 05:56:16;;;;;;;7.47;1.30;;;13.50;70.20;;;;;;5034776;28;20175;-81
2023/11/02 05:58:46;;;;;;;5.53;1.23;;;13.60;68.90;;;;;;5035344;28;20257;-78
2023/11/02 06:01:12;;;;;;;3.70;1.13;;;13.50;65.00;;;;;;5047051;28;20168;-79
2023/11/02 06:03:38;;;;;;;3.63;1.57;;;13.60;65.30;;;;;;5044303;28;20184;-80
2023/11/02 06:06:04;;;;;;;5.20;1.13;;;13.60;64.90;;;;;;5035008;28;20192;-79
2023/11/02 06:08:29;;;;;;;5.33;1.50;;;13.50;63.50;;;;;;5035935;28;20203;-81
2023/11/02 06:10:55;;;;;;;9.37;1.53;;;13.60;64.20;;;;;;5036943;28;20654;-81
2023/11/02 06:13:21;;;;;;;4.50;1.33;;;13.60;59.40;;;;;;5033781;28;20630;-79
2023/11/02 06:15:47;;;;;;;4.73;1.47;;;13.70;58.30;;;;;;5034613;28;20162;-79
2023/11/02 06:18:12;;;;;;;5.50;1.57;;;13.60;58.10;;;;;;5034370;28;20216;-79
2023/11/02 06:20:38;;;;;;;6.63;1.27;;;13.70;56.20;;;;;;5035151;28;20169;-80
2023/11/02 06:23:04;;;;;;;4.07;1.70;;;13.70;56.00;;;;;;5034320;28;20227;-81
2023/11/02 06:25:29;;;;;;;8.93;1.93;;;13.60;57.20;;;;;;5032547;28;20170;-78
2023/11/02 06:27:55;;;;;;;8.07;1.63;;;13.60;57.60;;;;;;5035736;28;20250;-79
2023/11/02 06:30:21;;;;;;;6.57;1.37;;;13.60;56.80;;;;;;5033960;28;20181;-79
2023/11/02 06:32:46;;;;;;;5.43;1.37;;;13.70;55.50;;;;;;5035250;28;20570;-81
2023/11/02 06:35:13;;;;;;;5.17;1.30;;;13.60;56.60;;;;;;5035097;28;20166;-80
2023/11/02 06:37:59;;;;;;;5.10;1.50;;;13.60;57.00;;;;;;5034852;28;20178;-82
2023/11/02 06:40:28;;;;;;;5.87;1.50;;;13.60;58.20;;;;;;5034044;28;20636;-78
2023/11/02 06:42:58;;;;;;;4.37;1.13;;;13.60;56.00;;;;;;5034552;28;20185;-84
2023/11/02 06:45:25;;;;;;;6.73;1.83;;;13.60;56.80;;;;;;5034561;28;20580;-80
2023/11/02 06:47:50;;;;;;;6.93;1.40;;;13.60;58.80;;;;;;5033923;28;20193;-79
2023/11/02 06:50:18;;;;;;;7.13;1.30;;;13.50;58.10;;;;;;5035108;28;20530;-81
2023/11/02 06:52:44;;;;;;;4.63;1.50;;;13.60;58.30;;;;;;5034891;28;20217;-79
2023/11/02 06:55:11;;;;;;;4.37;1.17;;;13.60;57.80;;;;;;5035874;28;20185;-80
2023/11/02 06:57:39;;;;;;;6.60;1.60;;;13.60;54.60;;;;;;5034345;28;20187;-79
2023/11/02 07:00:09;;;;;;;5.93;1.60;;;13.60;52.80;;;;;;5040830;28;20234;-82
2023/11/02 07:02:36;;;;;;;7.20;1.30;;;13.70;50.50;;;;;;5042302;28;20230;-82
2023/11/02 07:05:06;;;;;;;6.00;1.60;;;13.80;47.80;;;;;;5034122;28;20166;-82
2023/11/02 07:07:40;;;;;;;8.40;1.83;;;13.70;46.90;;;;;;5033912;28;20683;-84
2023/11/02 07:10:09;;;;;;;5.70;1.40;;;13.70;43.30;;;;;;5032387;28;20188;-81
2023/11/02 07:12:36;;;;;;;6.57;1.80;;;13.70;42.20;;;;;;5033962;28;20217;-83
2023/11/02 07:15:02;;;;;;;5.97;1.70;;;13.80;42.70;;;;;;5035122;28;20223;-83
2023/11/02 07:17:28;;;;;;;5.37;1.80;;;13.80;41.80;;;;;;5041119;28;20154;-80
2023/11/02 07:20:00;;;;;;;6.40;2.00;;;13.70;41.40;;;;;;5040385;28;20177;-79
2023/11/02 07:22:25;;;;;;;6.03;1.70;;;13.80;38.80;;;;;;5042432;28;20200;-81
2023/11/02 07:24:52;;;;;;;6.60;2.10;;;13.70;36.70;;;;;;5039718;28;20503;-79
2023/11/02 07:27:17;;;;;;;6.70;2.20;;;13.80;36.10;;;;;;5038876;28;20166;-80
2023/11/02 07:29:44;;;;;;;7.47;2.50;;;13.70;36.50;;;;;;5038720;28;20188;-81
2023/11/02 07:32:11;;;;;;;8.00;1.90;;;13.70;33.90;;;;;;5038982;28;20201;-81
2023/11/02 07:34:36;;;;;;;7.60;1.80;;;13.70;30.60;;;;;;5020090;28;20182;-80
2023/11/02 07:37:02;;;;;;;6.93;1.80;;;13.70;25.90;;;;;;5020058;28;20273;-84
2023/11/02 07:39:29;;;;;;;9.13;2.10;;;13.80;25.40;;;;;;5018140;28;20517;-81
2023/11/02 07:41:54;;;;;;;7.57;1.97;;;13.90;25.10;;;;;;5016580;28;20190;-83
2023/11/02 07:44:20;;;;;;;8.87;2.23;;;14.00;22.80;;;;;;5019203;28;20325;-80
2023/11/02 07:46:45;;;;;;;7.03;2.10;;;14.00;22.90;;;;;;5018977;28;20190;-80
2023/11/02 07:49:13;;;;;;;7.03;2.17;;;13.90;22.00;;;;;;5018413;28;20170;-81
2023/11/02 07:51:39;;;;;;;9.50;1.90;;;13.90;20.60;;;;;;5020050;28;20710;-83
2023/11/02 07:54:07;;;;;;;9.33;2.07;;;13.90;20.10;;;;;;5017696;28;20181;-81
2023/11/02 07:56:32;;;;;;;7.63;2.07;;;14.00;18.20;;;;;;5018102;28;20272;-81
2023/11/02 07:58:58;;;;;;;9.13;1.93;;;14.00;16.90;;;;;;5019929;28;20232;-81
2023/11/02 08:01:24;;;;;;;7.57;1.60;;;14.10;16.60;;;;;;5019060;28;20655;-80
2023/11/02 08:03:51;;;;;;;7.17;1.93;;;14.10;16.40;;;;;;5013062;28;20624;-80
2023/11/02 08:06:17;;;;;;;6.67;1.90;;;14.10;1.00;;;;;;5018963;28;20186;-81
2023/11/02 08:08:44;;;;;;;9.40;2.33;;;14.10;1.00;;;;;;5019677;28;20243;-80
2023/11/02 08:11:11;;;;;;;8.93;2.30;;;14.10;1.00;;;;;;5001355;28;20175;-83
2023/11/02 08:13:37;;;;;;;7.57;2.13;;;14.20;1.00;;;;;;5002703;28;20286;-80
2023/11/02 08:16:04;;;;;;;10.40;2.60;;;14.30;1.00;;;;;;5002619;28;20166;-80
2023/11/02 08:18:30;;;;;;;9.30;2.17;;;14.20;1.00;;;;;;5018569;28;20193;-79
2023/11/02 08:20:57;;;;;;;8.00;1.63;;;14.30;1.00;;;;;;5016173;28;20171;-80
2023/11/02 08:23:22;;;;;;;8.57;2.00;;;14.30;1.00;;;;;;4998279;28;20185;-82
2023/11/02 08:25:50;;;;;;;5.60;2.00;;;14.30;1.00;;;;;;4998583;28;20248;-81
2023/11/02 08:28:16;;;;;;;10.77;2.00;;;14.30;1.00;;;;;;4998458;28;20179;-81
2023/11/02 08:30:41;;;;;;;11.63;2.73;;;14.30;1.00;;;;;;4998221;28;20167;-80
2023/11/02 08:33:08;;;;;;;7.70;2.20;;;14.40;1.00;;;;;;5011687;28;20219;-81
2023/11/02 08:35:34;;;;;;;8.43;2.10;;;14.50;1.00;;;;;;4997138;28;20254;-80
2023/11/02 08:38:00;;;;;;;8.60;1.90;;;14.50;1.00;;;;;;4996566;28;20681;-83
2023/11/02 08:40:25;;;;;;;4.83;1.90;;;14.60;1.00;;;;;;4996266;28;20654;-81
2023/11/02 08:42:51;;;;;;;6.83;1.77;;;14.60;1.00;;;;;;4996774;28;20182;-81
2023/11/02 08:45:17;;;;;;;8.63;2.07;;;14.50;1.00;;;;;;5011593;28;20221;-80
2023/11/02 08:47:43;;;;;;;9.73;2.20;;;14.50;1.00;;;;;;4996846;28;20659;-81
2023/11/02 08:50:10;;;;;;;6.37;1.33;;;14.50;1.00;;;;;;4996110;28;20187;-82
2023/11/02 08:52:37;;;;;;;8.97;2.03;;;14.50;1.00;;;;;;4995293;28;20214;-80
2023/11/02 08:55:03;;;;;;;8.37;1.80;;;14.60;1.00;;;;;;5010484;28;20262;-80
2023/11/02 08:57:29;;;;;;;8.13;2.43;;;14.60;1.00;;;;;;5015685;28;20174;-80
2023/11/02 08:59:59;;;;;;;8.47;1.90;;;14.70;1.00;;;;;;5014268;28;20261;-81
2023/11/02 09:02:25;;;;;;;11.63;2.90;;;14.70;1.00;;;;;;5015649;28;20229;-81
2023/11/02 09:04:52;;;;;;;9.37;2.20;;;14.70;1.00;;;;;;5014531;28;20154;-80
2023/11/02 09:07:21;;;;;;;8.10;2.27;;;14.70;1.00;;;;;;5013154;28;20651;-80
2023/11/02 09:09:48;;;;;;;9.50;2.57;;;14.80;1.00;;;;;;5016121;28;20170;-80
2023/11/02 09:12:14;;;;;;;10.03;2.27;;;14.60;1.00;;;;;;5015221;28;20242;-79
2023/11/02 09:14:40;;;;;;;9.63;2.10;;;14.70;1.00;;;;;;5015520;28;20178;-81
2023/11/02 09:17:06;;;;;;;10.80;2.50;;;14.60;1.00;;;;;;5015210;28;20164;-79
2023/11/02 09:19:31;;;;;;;8.00;1.90;;;14.70;1.00;;;;;;5016746;28;20514;-82
2023/11/02 09:22:00;;;;;;;9.83;2.63;;;14.60;1.00;;;;;;5027580;28;20562;-80
2023/11/02 09:24:26;;;;;;;7.63;2.23;;;14.60;1.00;;;;;;5034747;28;20173;-81
2023/11/02 09:26:53;;;;;;;10.43;2.17;;;14.70;1.00;;;;;;5036732;28;20170;-80
2023/11/02 09:29:18;;;;;;;8.53;2.20;;;14.60;1.00;;;;;;5030414;28;20736;-82
2023/11/02 09:31:44;;;;;;;8.77;2.40;;;14.60;1.00;;;;;;5005130;28;20206;-79
2023/11/02 09:34:12;;;;;;;7.60;2.23;;;14.70;1.00;;;;;;5008907;28;20177;-83
2023/11/02 09:36:39;;;;;;;11.63;2.73;;;14.70;1.00;;;;;;5008234;28;20191;-81
2023/11/02 09:39:07;;;;;;;6.50;1.77;;;14.70;1.00;;;;;;5003974;28;20186;-81
2023/11/02 09:41:37;;;;;;;8.43;2.47;;;14.70;1.00;;;;;;5004489;28;20198;-83
2023/11/02 09:44:08;;;;;;;11.07;2.87;;;14.60;1.00;;;;;;5020224;28;20194;-85
2023/11/02 09:46:34;;;;;;;10.00;2.47;;;14.60;1.00;;;;;;5009098;28;20176;-83
2023/11/02 09:49:00;;;;;;;10.20;2.10;;;14.50;1.00;;;;;;5032774;28;20261;-83
2023/11/02 09:51:26;;;;;;;12.53;2.93;;;14.60;1.00;;;;;;5018517;28;20671;-82
2023/11/02 09:53:52;;;;;;;11.97;2.70;;;14.60;1.00;;;;;;5025124;28;20277;-84
2023/11/02 09:56:23;;;;;;;8.77;2.40;;;14.60;1.00;;;;;;5005076;28;20170;-84
2023/11/02 09:58:51;;;;;;;10.67;3.10;;;14.60;1.00;;;;;;5027059;28;20170;-82
2023/11/02 10:01:18;;;;;;;7.93;2.20;;;14.60;1.00;;;;;;5032689;28;20231;-82
2023/11/02 10:03:46;;;;;;;8.30;1.90;;;14.60;1.00;;;;;;5030647;28;20253;-83
2023/11/02 10:06:16;;;;;;;8.30;2.00;;;14.60;1.00;;;;;;5010860;28;20209;-84
2023/11/02 10:08:44;;;;;;;7.27;1.93;;;14.60;1.00;;;;;;5004123;28;20652;-82
2023/11/02 10:11:15;;;;;;;8.10;1.73;;;14.60;1.00;;;;;;5004481;28;20175;-82
2023/11/02 10:13:48;;;;;;;8.97;2.10;;;14.60;1.00;;;;;;5008830;28;20205;-80
2023/11/02 10:16:20;;;;;;;10.93;2.37;;;14.60;1.00;;;;;;5020095;28;20182;-80
2023/11/02 10:18:47;;;;;;;6.33;1.63;;;14.70;1.00;;;;;;5030492;28;20169;-81
2023/11/02 10:21:12;;;;;;;9.00;2.13;;;14.70;1.00;;;;;;5017987;28;20260;-84
2023/11/02 10:23:55;;;;;;;7.90;2.20;;;14.70;1.00;;;;;;5018008;28;20209;-81
2023/11/02 10:26:24;;;;;;;7.07;1.70;;;14.70;1.00;;;;;;5002229;28;20171;-82
2023/11/02 10:28:53;;;;;;;9.77;1.80;;;14.70;1.00;;;;;;4998360;28;20211;-86
2023/11/02 10:31:27;;;;;;;11.47;2.03;;;14.80;1.00;;;;;;5007244;28;20171;-84
2023/11/02 10:33:53;;;;;;;12.07;2.60;;;14.70;1.00;;;;;;4998980;28;20246;-85
2023/11/02 10:36:20;;;;;;;5.77;2.13;;;14.70;1.00;;;;;;5020642;28;20170;-85
2023/11/02 10:38:46;;;;;;;10.60;1.80;;;14.60;1.00;;;;;;5011046;28;20215;-82
2023/11/02 10:41:16;;;;;;;10.13;2.17;;;14.60;1.00;;;;;;5003996;28;20522;-81
2023/11/02 10:43:55;;;;;;;8.93;2.63;;;14.50;1.00;;;;;;5010203;28;20212;-81
2023/11/02 10:46:23;;;;;;;9.07;1.90;;;14.50;1.00;;;;;;5011424;28;20254;-81
2023/11/02 10:48:53;;;;;;;10.43;1.83;;;14.50;1.00;;;;;;5008801;28;20171;-80
2023/11/02 10:51:24;;;;;;;7.73;2.10;;;14.50;1.00;;;;;;5000552;28;20186;-78
2023/11/02 10:54:25;;;;;;;8.60;1.80;;;14.50;1.00;;;;;;5015232;28;20190;-80
2023/11/02 10:57:05;;;;;;;10.57;2.00;;;14.50;1.00;;;;;;5003403;28;20194;-83
2023/11/02 10:59:33;;;;;;;9.67;2.30;;;14.50;1.00;;;;;;5020904;28;20259;-82
2023/11/02 11:02:03;;;;;;;8.47;1.80;;;14.50;1.00;;;;;;5020474;28;20171;-80
2023/11/02 11:04:38;;;;;;;7.80;1.80;;;14.50;1.00;;;;;;5004471;28;20382;-82
2023/11/02 11:07:04;;;;;;;10.87;3.03;;;14.40;1.00;;;;;;5014118;28;20610;-82
2023/11/02 11:09:32;;;;;;;6.07;2.20;;;14.60;1.00;;;;;;5016957;28;20181;-83
2023/11/02 11:12:01;;;;;;;7.93;2.50;;;14.20;1.00;;;;;;5012358;28;20226;-84
2023/11/02 11:14:29;;;;;;;7.70;2.00;;;14.40;1.00;;;;;;5009006;28;20203;-83
2023/11/02 11:16:56;;;;;;;9.57;2.60;;;14.30;1.00;;;;;;5011006;28;20178;-83
2023/11/02 11:19:23;;;;;;;10.77;3.40;;;14.20;1.00;;;;;;5010824;28;20257;-80
2023/11/02 11:21:51;;;;;;;7.30;2.30;;;14.10;1.00;;;;;;5011855;28;20166;-81
2023/11/02 11:24:17;;;;;;;7.67;2.70;;;14.10;1.00;;;;;;5009075;28;20657;-85
2023/11/02 11:26:54;;;;;;;8.87;2.70;;;14.00;1.00;;;;;;5009118;28;20167;-85
2023/11/02 11:29:40;;;;;;;11.97;2.30;;;13.90;1.00;;;;;;5008746;28;20177;-86
2023/11/02 11:32:08;;;;;;;10.47;2.57;;;13.80;1.00;;;;;;5006284;28;20206;-86
2023/11/02 11:34:55;;;;;;;11.27;3.03;;;13.80;1.00;;;;;;5009403;28;20174;-83
2023/11/02 11:37:34;;;;;;;11.47;2.53;;;13.80;1.00;;;;;;5010450;28;20167;-81
2023/11/02 11:40:03;;;;;;;6.70;2.30;;;13.80;1.00;;;;;;5010303;28;20276;-83
2023/11/02 11:43:18;;;;;;;8.23;2.20;;;13.80;1.00;;;;;;5011299;28;20167;-87
2023/11/02 11:45:51;;;;;;;9.00;2.40;;;13.70;1.00;;;;;;5009532;28;20174;-84
2023/11/02 11:48:39;;;;;;;10.20;2.10;;;13.50;1.00;;;;;;5009523;28;20198;-81
2023/11/02 11:51:39;;;;;;;8.60;1.97;;;13.30;1.00;;;;;;5011892;28;20182;-85
2023/11/02 11:54:14;;;;;;;11.60;1.80;;;13.30;1.00;;;;;;5009114;28;20602;-86
2023/11/02 11:56:41;;;;;;;7.63;2.00;;;13.30;1.00;;;;;;5010368;28;20177;-85
2023/11/02 11:59:07;;;;;;;6.00;1.90;;;13.40;1.00;;;;;;5007812;28;20193;-86
2023/11/02 12:01:33;;;;;;;7.60;1.57;;;13.50;1.00;;;;;;5007765;28;20642;-84
2023/11/02 12:03:58;;;;;;;9.70;1.80;;;13.60;1.00;;;;;;5006116;28;20182;-86
2023/11/02 12:06:45;;;;;;;6.37;1.77;;;13.60;1.00;;;;;;5010180;28;20175;-82
2023/11/02 12:09:13;;;;;;;4.43;1.17;;;13.70;1.00;;;;;;5015007;28;20205;-86
2023/11/02 12:11:41;;;;;;;5.97;1.40;;;13.70;1.00;;;;;;5028288;28;20261;-82
2023/11/02 12:14:17;;;;;;;4.10;1.20;;;13.80;1.00;;;;;;5018364;28;20654;-83
2023/11/02 12:16:43;;;;;;;4.43;1.20;;;13.80;1.00;;;;;;5018558;28;20228;-84
2023/11/02 12:19:11;;;;;;;5.10;1.47;;;13.70;1.00;;;;;;5019417;28;20270;-85
2023/11/02 12:21:38;;;;;;;6.60;1.90;;;13.60;1.00;;;;;;5018027;28;20174;-85
2023/11/02 12:24:12;;;;;;;8.27;1.70;;;13.50;1.00;;;;;;5018121;28;20674;-83
2023/11/02 12:26:41;;;;;;;6.07;1.70;;;13.50;1.00;;;;;;5012004;28;20252;-85
2023/11/02 12:29:09;;;;;;;6.43;1.60;;;13.40;1.00;;;;;;5023751;28;20181;-81
2023/11/02 12:31:38;;;;;;;6.43;1.80;;;13.20;1.00;;;;;;5031418;28;20197;-81
2023/11/02 12:34:08;;;;;;;7.70;2.27;;;13.40;1.00;;;;;;5023305;28;20638;-90
2023/11/02 12:36:35;;;;;;;6.87;2.03;;;13.40;1.00;;;;;;5025497;28;20186;-83
2023/11/02 12:39:11;;;;;;;6.87;1.47;;;13.40;1.00;;;;;;5015716;28;20234;-83
2023/11/02 12:41:38;;;;;;;8.03;1.90;;;13.50;1.00;;;;;;5018025;28;20174;-88
2023/11/02 12:44:09;;;;;;;6.33;1.60;;;13.50;1.00;;;;;;5022412;28;20719;-87
2023/11/02 12:46:43;;;;;;;10.67;1.70;;;13.60;1.00;;;;;;5018865;28;20259;-88
2023/11/02 12:49:19;;;;;;;7.37;1.93;;;13.50;1.00;;;;;;5012223;28;20181;-85
2023/11/02 12:52:01;;;;;;;6.60;3.57;;;13.60;1.00;;;;;;5000160;28;20659;-89
2023/11/02 12:54:30;;;;;;;5.63;2.20;;;13.60;1.00;;;;;;5001602;28;20174;-87
2023/11/02 12:57:00;;;;;;;7.50;1.77;;;13.60;1.00;;;;;;5009868;28;20167;-81
2023/11/02 12:59:26;;;;;;;4.87;1.77;;;13.60;1.00;;;;;;5003177;28;20179;-82
2023/11/02 13:01:53;;;;;;;5.53;1.90;;;13.70;1.00;;;;;;5015016;28;20265;-84
2023/11/02 13:04:23;;;;;;;5.73;1.70;;;13.60;1.00;;;;;;5006743;28;20174;-85
2023/11/02 13:06:50;;;;;;;10.33;1.67;;;13.70;1.00;;;;;;5016225;28;20177;-87
2023/11/02 13:09:17;;;;;;;5.57;1.70;;;13.70;1.00;;;;;;5013883;28;20179;-87